Time;durP1;ratioP1;P1;durP2;ratioP2;P2;SDS_P1;SDS_P2;PMS_P1;PMS_P2;Temp;Humidity;BMP_temperature;BMP_pressure;BME280_temperature;BME280_humidity;BME280_pressure;Samples;Min_cycle;Max_cycle;Signal;HPM_P1;HPM_P2
2022/12/06 00:01:50;;;;;;;3.72;1.90;;;;;;;4.30;68.94;102893.67;1755351;80;21006;-58
2022/12/06 00:04:16;;;;;;;4.55;1.95;;;;;;;4.34;68.80;102890.38;1761091;80;21557;-58
2022/12/06 00:06:46;;;;;;;3.62;2.25;;;;;;;4.35;68.67;102883.98;1768166;80;21097;-58
2022/12/06 00:09:21;;;;;;;6.62;3.60;;;;;;;4.36;68.56;102876.74;1711609;83;21605;-58
2022/12/06 00:11:48;;;;;;;4.95;2.50;;;;;;;4.38;68.40;102875.09;1711823;84;21502;-58
2022/12/06 00:14:15;;;;;;;6.62;2.60;;;;;;;4.40;68.32;102879.02;1711923;84;21027;-58
2022/12/06 00:16:42;;;;;;;3.60;2.05;;;;;;;4.41;68.26;102880.78;1711864;83;21098;-58
2022/12/06 00:19:12;;;;;;;3.95;2.37;;;;;;;4.43;68.23;102881.28;1712078;84;21097;-58
2022/12/06 00:21:39;;;;;;;3.27;2.40;;;;;;;4.44;68.13;102880.48;1608938;88;21468;-58
2022/12/06 00:24:13;;;;;;;3.87;1.87;;;;;;;4.45;68.01;102878.34;1610047;88;21553;-58
2022/12/06 00:26:42;;;;;;;5.58;1.90;;;;;;;4.46;68.03;102878.83;1595754;89;21051;-58
2022/12/06 00:29:15;;;;;;;3.15;1.95;;;;;;;4.48;67.97;102877.19;1588685;90;22273;-58
2022/12/06 00:31:41;;;;;;;3.58;2.75;;;;;;;4.48;67.96;102882.75;1588049;90;21050;-58
2022/12/06 00:34:08;;;;;;;6.03;4.05;;;;;;;4.50;67.96;102875.95;1587843;90;21138;-58
2022/12/06 00:36:37;;;;;;;3.72;2.70;;;;;;;4.52;67.89;102875.19;1583815;90;21137;-58
2022/12/06 00:39:09;;;;;;;2.95;2.33;;;;;;;4.56;67.69;102865.45;1577344;90;21059;-58
2022/12/06 00:41:36;;;;;;;2.98;2.33;;;;;;;4.61;67.63;102863.93;1599228;90;21121;-58
2022/12/06 00:44:02;;;;;;;5.62;2.05;;;;;;;4.64;67.42;102861.44;1578576;89;21021;-58
2022/12/06 00:46:30;;;;;;;3.90;2.20;;;;;;;4.64;67.45;102858.87;1589631;90;21074;-58
2022/12/06 00:48:58;;;;;;;7.50;2.45;;;;;;;4.65;67.53;102858.46;1587635;90;21556;-58
2022/12/06 00:51:27;;;;;;;4.25;2.22;;;;;;;4.66;67.43;102846.91;1588051;90;21560;-58
2022/12/06 00:53:54;;;;;;;4.97;1.98;;;;;;;4.67;67.25;102851.25;1588524;90;21137;-58
2022/12/06 00:56:20;;;;;;;6.22;2.70;;;;;;;4.66;67.27;102845.61;1589590;89;21098;-58
2022/12/06 00:58:47;;;;;;;6.47;2.40;;;;;;;4.66;67.23;102848.19;1587767;90;21172;-58
2022/12/06 01:01:20;;;;;;;4.33;2.20;;;;;;;4.68;67.30;102849.12;1588226;90;21553;-58
2022/12/06 01:03:53;;;;;;;5.12;2.77;;;;;;;4.70;67.25;102846.19;1588009;90;21110;-58
2022/12/06 01:06:26;;;;;;;4.20;2.33;;;;;;;4.69;67.17;102847.03;1577348;90;21091;-58
2022/12/06 01:08:55;;;;;;;7.03;4.28;;;;;;;4.69;67.07;102853.47;1594874;90;21129;-58
2022/12/06 01:11:23;;;;;;;6.62;4.20;;;;;;;4.64;66.58;102848.55;1559908;90;21095;-58
2022/12/06 01:13:50;;;;;;;7.12;4.85;;;;;;;4.57;66.32;102844.42;1574623;89;21701;-58
2022/12/06 01:16:26;;;;;;;6.60;4.42;;;;;;;4.49;66.47;102844.13;1593182;89;21054;-58
2022/12/06 01:18:58;;;;;;;5.55;4.35;;;;;;;4.43;66.62;102841.33;1581792;87;21168;-58
2022/12/06 01:21:26;;;;;;;10.03;4.60;;;;;;;4.36;66.70;102842.34;1586695;88;21023;-58
2022/12/06 01:23:55;;;;;;;7.53;5.40;;;;;;;4.26;66.78;102830.84;1581933;88;21142;-58
2022/12/06 01:26:27;;;;;;;5.37;4.35;;;;;;;4.22;66.92;102827.69;1605488;88;21115;-58
2022/12/06 01:28:54;;;;;;;8.28;4.72;;;;;;;4.16;66.91;102830.44;1575939;88;21519;-58
2022/12/06 01:31:21;;;;;;;6.55;4.87;;;;;;;4.10;66.99;102828.52;1576606;89;21077;-58
2022/12/06 01:33:47;;;;;;;7.08;4.80;;;;;;;4.02;66.75;102829.91;1575241;88;21063;-58
2022/12/06 01:36:17;;;;;;;5.35;4.85;;;;;;;3.94;66.88;102822.30;1571897;89;21090;-58
2022/12/06 01:38:43;;;;;;;7.45;5.20;;;;;;;3.86;66.83;102819.84;1564508;89;21078;-58
2022/12/06 01:41:10;;;;;;;7.10;5.20;;;;;;;3.78;67.02;102810.95;1583713;88;21112;-58
2022/12/06 01:43:41;;;;;;;6.85;4.80;;;;;;;3.70;67.12;102821.38;1580318;88;21091;-58
2022/12/06 01:46:25;;;;;;;10.25;5.58;;;;;;;3.64;67.48;102806.97;1583975;88;21039;-58
2022/12/06 01:49:06;;;;;;;9.35;5.05;;;;;;;3.58;67.62;102809.31;1566010;89;21170;-58
2022/12/06 01:51:33;;;;;;;7.07;5.50;;;;;;;3.53;67.78;102813.38;1539196;90;21590;-57
2022/12/06 01:54:01;;;;;;;6.80;5.37;;;;;;;3.48;67.96;102805.91;1539311;91;21152;-58
2022/12/06 01:56:29;;;;;;;9.38;5.55;;;;;;;3.43;67.67;102806.13;1551289;90;21131;-58
2022/12/06 01:58:57;;;;;;;7.15;5.42;;;;;;;3.34;67.78;102800.20;1533173;91;21092;-58
2022/12/06 02:01:25;;;;;;;8.73;5.87;;;;;;;3.28;67.96;102796.98;1516447;92;21068;-58
2022/12/06 02:03:55;;;;;;;7.85;5.65;;;;;;;3.22;67.97;102799.31;1605572;87;21118;-58
2022/12/06 02:06:21;;;;;;;6.20;5.28;;;;;;;3.18;68.13;102802.58;1637593;86;21090;-58
2022/12/06 02:08:48;;;;;;;7.17;5.50;;;;;;;3.13;68.14;102792.49;1687458;83;21116;-58
2022/12/06 02:11:15;;;;;;;7.28;5.75;;;;;;;3.10;68.37;102793.67;1714925;83;21505;-58
2022/12/06 02:13:41;;;;;;;7.28;6.20;;;;;;;3.09;68.35;102797.05;1716129;83;21577;-58
2022/12/06 02:16:22;;;;;;;8.78;6.42;;;;;;;3.05;68.36;102798.17;1720100;83;21105;-58
2022/12/06 02:18:54;;;;;;;11.55;6.37;;;;;;;3.03;68.47;102798.08;1715055;83;21099;-58
2022/12/06 02:21:24;;;;;;;;;;;;;;;2.99;68.30;102793.63;1716053;83;21055;-58
2022/12/06 02:24:38;;;;;;;7.72;6.25;;;;;;;2.96;68.60;102797.38;1675945;84;20143;-58
2022/12/06 02:27:20;;;;;;;9.10;6.55;;;;;;;2.94;68.64;102801.58;1670978;84;21640;-58
2022/12/06 02:30:09;;;;;;;10.55;5.87;;;;;;;2.90;68.74;102795.84;1617586;88;21119;-58
2022/12/06 02:32:42;;;;;;;8.13;6.40;;;;;;;2.89;68.93;102790.20;1634476;87;21162;-57
2022/12/06 02:35:20;;;;;;;8.18;5.67;;;;;;;2.89;68.89;102791.89;1616976;88;21504;-58
2022/12/06 02:38:09;;;;;;;7.40;5.45;;;;;;;2.87;68.93;102793.13;1625357;87;21167;-58
2022/12/06 02:40:42;;;;;;;9.85;5.85;;;;;;;2.86;69.06;102802.06;1598933;87;21114;-58
2022/12/06 02:43:21;;;;;;;8.93;6.10;;;;;;;2.87;69.17;102791.84;1618569;87;21134;-58
2022/12/06 02:45:52;;;;;;;8.28;6.62;;;;;;;2.88;69.24;102797.47;1623742;87;21572;-58
2022/12/06 02:48:20;;;;;;;8.18;6.40;;;;;;;2.88;69.25;102798.75;1620301;87;21125;-58
2022/12/06 02:51:00;;;;;;;6.72;5.70;;;;;;;2.88;69.34;102792.33;1623122;87;21053;-57
2022/12/06 02:53:28;;;;;;;7.33;5.70;;;;;;;2.89;69.29;102790.20;1532991;93;21212;-57
2022/12/06 02:55:55;;;;;;;10.40;6.33;;;;;;;2.88;69.33;102791.04;1527341;93;21063;-58
2022/12/06 02:58:22;;;;;;;8.98;6.22;;;;;;;2.88;69.35;102787.58;1524410;93;21164;-57
2022/12/06 03:00:54;;;;;;;7.28;6.00;;;;;;;2.81;69.79;102780.41;1525449;92;21064;-57
2022/12/06 03:03:48;;;;;;;9.93;6.78;;;;;;;2.83;69.89;102778.78;1459242;96;21100;-57
2022/12/06 03:06:39;;;;;;;10.10;6.92;;;;;;;2.87;69.64;102775.13;1475470;92;21178;-57
2022/12/06 03:09:35;;;;;;;8.33;6.05;;;;;;;2.87;69.68;102775.13;1549928;91;21163;-57
2022/12/06 03:12:19;;;;;;;9.35;6.22;;;;;;;2.89;69.68;102774.78;1549614;91;21682;-57
2022/12/06 03:15:03;;;;;;;8.55;6.53;;;;;;;2.90;69.54;102768.84;1471387;96;21670;-57
2022/12/06 03:17:51;;;;;;;7.83;6.05;;;;;;;2.87;69.62;102766.13;1462710;96;21097;-57
2022/12/06 03:20:26;;;;;;;8.45;6.17;;;;;;;2.87;69.64;102755.84;1471769;95;21609;-57
2022/12/06 03:23:01;;;;;;;8.78;6.45;;;;;;;2.85;69.39;102763.91;1501756;94;21065;-57
2022/12/06 03:25:28;;;;;;;8.80;6.00;;;;;;;2.84;69.45;102768.59;1492358;95;21092;-57
2022/12/06 03:27:55;;;;;;;9.63;6.15;;;;;;;2.83;69.42;102764.25;1481603;95;21061;-57
2022/12/06 03:30:22;;;;;;;7.75;6.30;;;;;;;2.83;69.50;102764.25;1482835;93;21445;-57
2022/12/06 03:32:48;;;;;;;7.83;6.47;;;;;;;2.84;69.55;102762.56;1513412;93;21076;-57
2022/12/06 03:35:22;;;;;;;8.65;6.12;;;;;;;2.84;69.55;102760.88;1512863;92;21247;-57
2022/12/06 03:37:52;;;;;;;13.05;7.53;;;;;;;2.83;69.39;102757.81;1520446;93;21727;-57
2022/12/06 03:40:23;;;;;;;9.40;6.03;;;;;;;2.81;69.30;102762.42;1507479;93;21078;-57
2022/12/06 03:42:49;;;;;;;10.13;6.65;;;;;;;2.80;69.47;102762.85;1504868;93;21661;-57
2022/12/06 03:45:17;;;;;;;8.88;5.70;;;;;;;2.80;69.55;102759.00;1483164;94;21136;-57
2022/12/06 03:47:58;;;;;;;10.23;6.45;;;;;;;2.80;69.54;102756.82;1499603;94;21554;-57
2022/12/06 03:50:44;;;;;;;10.00;6.75;;;;;;;2.80;69.43;102743.57;1504994;93;21162;-58
2022/12/06 03:53:10;;;;;;;7.80;5.80;;;;;;;2.81;69.42;102753.02;1561792;89;21542;-58
2022/12/06 03:55:37;;;;;;;8.08;6.45;;;;;;;2.81;69.41;102744.02;1588050;89;21061;-59
2022/12/06 03:58:03;;;;;;;10.25;6.17;;;;;;;2.81;69.46;102744.02;1595994;88;21151;-57
2022/12/06 04:00:31;;;;;;;14.47;6.62;;;;;;;2.82;69.45;102744.51;1624055;86;21628;-57
2022/12/06 04:02:57;;;;;;;7.03;6.03;;;;;;;2.81;69.44;102746.59;1644530;86;21031;-57
2022/12/06 04:05:24;;;;;;;10.45;6.47;;;;;;;2.82;69.42;102742.34;1646112;86;21562;-57
2022/12/06 04:07:50;;;;;;;10.13;6.87;;;;;;;2.80;69.42;102741.00;1658997;86;21061;-57
2022/12/06 04:10:17;;;;;;;9.13;6.40;;;;;;;2.81;69.42;102738.88;1652149;86;21170;-58
2022/12/06 04:13:00;;;;;;;10.72;6.50;;;;;;;2.80;69.50;102738.43;1630590;86;21104;-57
2022/12/06 04:15:34;;;;;;;9.25;6.62;;;;;;;2.81;69.54;102738.88;1637792;86;21142;-57
2022/12/06 04:18:12;;;;;;;7.95;5.97;;;;;;;2.82;69.68;102743.22;1706417;83;21097;-59
2022/12/06 04:23:37;;;;;;;8.78;6.00;;;;;;;2.79;69.36;102737.94;1688169;84;21103;-57
2022/12/06 04:26:07;;;;;;;9.58;5.90;;;;;;;2.79;69.32;102734.09;1650407;85;21572;-58
2022/12/06 04:39:34;;;;;;;9.13;5.95;;;;;;;2.77;69.32;102735.72;1650073;84;21049;-57
2022/12/06 04:44:46;;;;;;;14.45;6.05;;;;;;;2.78;69.35;102731.03;1654262;84;21798;-57
2022/12/06 04:47:13;;;;;;;6.75;5.70;;;;;;;2.78;69.31;102732.31;1655522;85;21102;-57
2022/12/06 04:49:39;;;;;;;7.60;5.53;;;;;;;2.78;69.38;102731.03;1643456;85;21052;-57
2022/12/06 04:52:08;;;;;;;6.50;5.03;;;;;;;2.80;69.30;102725.58;1651916;85;21056;-57
2022/12/06 04:54:35;;;;;;;8.25;6.15;;;;;;;2.84;69.38;102737.73;1657184;85;21624;-57
2022/12/06 04:57:01;;;;;;;7.87;5.62;;;;;;;2.86;69.35;102730.97;1666254;84;21077;-57
2022/12/06 04:59:28;;;;;;;6.87;5.40;;;;;;;2.89;69.51;102731.47;1663311;84;21100;-57
2022/12/06 05:01:55;;;;;;;8.65;5.25;;;;;;;2.92;69.55;102727.36;1681870;85;21052;-57
2022/12/06 05:04:23;;;;;;;8.55;4.87;;;;;;;2.95;69.57;102725.29;1676073;84;21608;-57
2022/12/06 05:06:49;;;;;;;7.00;5.47;;;;;;;2.98;69.58;102718.59;1684418;84;21099;-57
2022/12/06 05:09:16;;;;;;;6.97;5.55;;;;;;;3.02;69.65;102712.76;1683362;84;21177;-57
2022/12/06 05:11:42;;;;;;;9.88;5.83;;;;;;;3.05;69.65;102714.15;1678500;84;21025;-57
2022/12/06 05:14:09;;;;;;;8.70;5.35;;;;;;;3.09;69.59;102711.31;1679518;85;21034;-57
2022/12/06 05:16:36;;;;;;;11.50;5.75;;;;;;;3.08;69.53;102705.28;1684043;85;21067;-57
2022/12/06 05:19:03;;;;;;;7.17;5.08;;;;;;;3.10;69.48;102707.91;1683657;85;21574;-57
2022/12/06 05:21:29;;;;;;;6.62;5.05;;;;;;;3.12;69.66;102709.73;1677212;84;21082;-57
2022/12/06 05:23:56;;;;;;;9.63;5.05;;;;;;;3.15;69.98;102702.11;1781651;80;21066;-57
2022/12/06 05:26:25;;;;;;;9.88;4.75;;;;;;;3.21;70.10;102699.78;1764054;80;21103;-58
2022/12/06 05:28:52;;;;;;;5.50;4.53;;;;;;;3.28;70.10;102703.08;1758206;80;21092;-57
2022/12/06 05:31:19;;;;;;;7.53;4.20;;;;;;;3.32;70.14;102696.77;1758836;80;21011;-57
2022/12/06 05:33:45;;;;;;;6.65;4.70;;;;;;;3.39;70.25;102700.03;1768309;80;21025;-57
2022/12/06 05:36:17;;;;;;;7.08;4.75;;;;;;;3.37;70.37;102696.12;1774151;80;21517;-57
2022/12/06 05:38:45;;;;;;;;;;;;;;;3.41;70.78;102691.55;1772312;80;21034;-57
2022/12/06 05:41:11;;;;;;;7.65;3.50;;;;;;;3.48;70.99;102690.98;1772669;80;20443;-57
2022/12/06 05:43:38;;;;;;;4.20;2.55;;;;;;;3.57;71.20;102682.70;1765159;80;21033;-57
2022/12/06 05:46:05;;;;;;;3.65;2.40;;;;;;;3.67;71.27;102681.81;1765527;80;21109;-57
2022/12/06 05:48:33;;;;;;;6.20;2.30;;;;;;;3.77;71.30;102680.47;1754605;80;21683;-58
2022/12/06 05:51:00;;;;;;;4.35;2.85;;;;;;;3.89;71.26;102680.91;1752060;80;21081;-57
2022/12/06 05:53:27;;;;;;;5.58;2.50;;;;;;;3.99;71.32;102679.12;1694966;83;21126;-58
2022/12/06 05:55:54;;;;;;;5.00;2.58;;;;;;;4.12;71.15;102677.45;1757851;80;21023;-58
2022/12/06 05:58:20;;;;;;;3.65;2.20;;;;;;;4.21;70.98;102676.47;1767064;80;21090;-58
2022/12/06 06:00:48;;;;;;;6.08;2.12;;;;;;;4.30;70.85;102674.22;1763332;80;21062;-57
2022/12/06 06:03:17;;;;;;;7.12;2.02;;;;;;;4.43;70.57;102674.22;1767627;80;21058;-58
2022/12/06 06:05:48;;;;;;;2.47;2.02;;;;;;;4.48;70.34;102670.08;1676942;83;21102;-58
2022/12/06 06:08:17;;;;;;;5.03;2.12;;;;;;;4.55;70.12;102666.89;1706433;83;21022;-58
2022/12/06 06:10:45;;;;;;;3.10;1.90;;;;;;;4.63;69.85;102662.45;1674059;84;21080;-58
2022/12/06 06:13:11;;;;;;;3.98;2.22;;;;;;;4.70;69.66;102669.55;1666144;84;21046;-58
2022/12/06 06:15:38;;;;;;;5.45;2.72;;;;;;;4.77;69.49;102670.22;1657182;84;21033;-58
2022/12/06 06:18:05;;;;;;;4.85;1.62;;;;;;;4.82;69.32;102668.64;1677533;84;21037;-58
2022/12/06 06:20:32;;;;;;;5.10;2.12;;;;;;;4.87;69.19;102663.64;1669087;84;21099;-58
2022/12/06 06:22:58;;;;;;;2.87;1.95;;;;;;;4.91;69.01;102665.48;1664767;84;21089;-58
2022/12/06 06:25:25;;;;;;;6.58;2.25;;;;;;;5.02;68.75;102663.24;1675214;84;21018;-58
2022/12/06 06:27:52;;;;;;;4.67;2.00;;;;;;;5.11;68.37;102671.28;1659564;84;21097;-58
2022/12/06 06:30:19;;;;;;;3.52;2.15;;;;;;;5.16;68.11;102668.41;1677521;84;21541;-58
2022/12/06 06:32:45;;;;;;;4.83;2.25;;;;;;;5.19;67.91;102664.65;1667799;84;21097;-58
2022/12/06 06:35:13;;;;;;;5.03;2.60;;;;;;;5.20;67.74;102669.84;1672425;84;21072;-58
2022/12/06 06:37:40;;;;;;;4.83;2.30;;;;;;;5.23;67.72;102668.66;1655648;84;21104;-58
2022/12/06 06:40:10;;;;;;;2.22;1.80;;;;;;;5.28;67.61;102665.79;1661744;84;21089;-58
2022/12/06 06:42:38;;;;;;;5.00;2.37;;;;;;;5.32;67.40;102666.75;1655759;84;21127;-58
2022/12/06 06:45:05;;;;;;;4.97;1.98;;;;;;;5.33;67.18;102668.52;1662708;84;21095;-58
2022/12/06 06:47:32;;;;;;;6.20;2.35;;;;;;;5.36;67.08;102671.17;1661824;84;21042;-58
2022/12/06 06:49:59;;;;;;;3.30;1.85;;;;;;;5.39;66.84;102671.28;1665789;84;21088;-58
2022/12/06 06:52:25;;;;;;;9.13;2.65;;;;;;;5.41;66.71;102668.33;1658575;84;21526;-58
2022/12/06 06:54:52;;;;;;;4.22;2.20;;;;;;;5.45;66.60;102666.29;1668212;84;21104;-58
2022/12/06 06:57:19;;;;;;;3.72;2.20;;;;;;;5.46;66.47;102660.31;1666278;84;21061;-58
2022/12/06 06:59:45;;;;;;;5.40;2.42;;;;;;;5.48;66.41;102657.36;1677482;84;21049;-58
2022/12/06 07:02:13;;;;;;;3.67;1.98;;;;;;;5.51;66.37;102664.77;1673695;83;21074;-58
2022/12/06 07:04:41;;;;;;;4.53;2.60;;;;;;;5.53;66.31;102662.22;1708954;82;21052;-58
2022/12/06 07:07:07;;;;;;;4.15;2.27;;;;;;;5.53;66.14;102665.69;1732936;80;21031;-58
2022/12/06 07:09:34;;;;;;;3.90;2.02;;;;;;;5.56;66.09;102664.91;1774577;80;21585;-58
2022/12/06 07:12:01;;;;;;;4.75;2.27;;;;;;;5.58;66.13;102663.25;1762321;80;21054;-58
2022/12/06 07:14:27;;;;;;;3.87;1.92;;;;;;;5.58;66.02;102663.25;1776535;80;21565;-58
2022/12/06 07:16:54;;;;;;;3.50;2.00;;;;;;;5.54;66.16;102662.26;1779692;80;21037;-58
2022/12/06 07:19:21;;;;;;;4.33;1.92;;;;;;;5.52;66.35;102657.91;1760040;80;21035;-58
2022/12/06 07:21:48;;;;;;;4.85;2.45;;;;;;;5.57;66.11;102661.48;1756849;80;21564;-58
2022/12/06 07:24:14;;;;;;;4.37;2.00;;;;;;;5.57;66.00;102659.78;1769217;80;21030;-58
2022/12/06 07:26:41;;;;;;;3.40;2.05;;;;;;;5.61;65.88;102661.62;1775080;80;21403;-58
2022/12/06 07:29:07;;;;;;;3.58;2.15;;;;;;;5.60;65.96;102660.30;1766123;80;21059;-58
2022/12/06 07:31:34;;;;;;;5.45;2.40;;;;;;;5.56;66.05;102658.02;1768255;80;21106;-58
2022/12/06 07:34:01;;;;;;;3.77;1.98;;;;;;;5.56;65.99;102661.04;1743663;80;21601;-58
2022/12/06 07:36:29;;;;;;;4.10;1.82;;;;;;;5.55;65.87;102665.72;1773265;80;21002;-58
2022/12/06 07:38:57;;;;;;;3.90;2.30;;;;;;;5.51;65.94;102665.18;1764903;80;20994;-58
2022/12/06 07:46:59;;;;;;;4.72;2.10;;;;;;;5.51;66.09;102658.72;1740485;80;21577;-57
2022/12/06 07:49:26;;;;;;;7.67;2.70;;;;;;;5.56;66.06;102664.91;1751815;80;21062;-57
2022/12/06 07:51:53;;;;;;;3.65;2.10;;;;;;;5.59;65.98;102664.98;1745003;81;21064;-57
2022/12/06 07:54:20;;;;;;;3.00;1.85;;;;;;;5.61;65.80;102671.06;1744364;81;21021;-57
2022/12/06 07:56:47;;;;;;;5.03;2.65;;;;;;;5.64;65.51;102666.00;1753406;80;21031;-57
2022/12/06 07:59:14;;;;;;;3.90;1.92;;;;;;;5.65;65.44;102672.91;1749457;80;21054;-57
2022/12/06 08:01:42;;;;;;;3.65;2.50;;;;;;;5.67;65.33;102667.36;1761128;80;21025;-58
2022/12/06 08:04:09;;;;;;;5.87;2.55;;;;;;;5.67;65.44;102666.95;1691451;83;21341;-58
2022/12/06 08:06:35;;;;;;;6.58;2.60;;;;;;;5.66;65.45;102666.92;1711875;82;21042;-58
2022/12/06 08:09:03;;;;;;;3.52;2.47;;;;;;;5.66;65.33;102659.17;1701468;83;21058;-57
2022/12/06 08:11:30;;;;;;;4.37;2.60;;;;;;;5.67;65.30;102658.33;1710373;83;21609;-57
2022/12/06 08:13:57;;;;;;;4.17;2.10;;;;;;;5.67;65.29;102647.59;1695965;84;21031;-57
2022/12/06 08:16:24;;;;;;;6.25;2.40;;;;;;;5.66;65.33;102644.56;1711214;83;21129;-58
2022/12/06 08:18:51;;;;;;;5.65;2.22;;;;;;;5.67;65.20;102642.83;1696572;83;21031;-57
2022/12/06 08:21:18;;;;;;;5.95;2.40;;;;;;;5.67;65.13;102640.24;1701292;83;21030;-57
2022/12/06 08:23:45;;;;;;;6.50;2.52;;;;;;;5.65;65.21;102627.70;1708505;83;21062;-58
2022/12/06 08:26:15;;;;;;;4.10;2.52;;;;;;;5.70;65.24;102624.84;1702197;83;21054;-58
2022/12/06 08:28:44;;;;;;;5.62;2.27;;;;;;;5.72;65.10;102627.06;1700937;83;21070;-58
2022/12/06 08:31:17;;;;;;;8.43;1.98;;;;;;;5.79;64.91;102634.13;1707851;83;21034;-57
2022/12/06 08:33:44;;;;;;;6.60;1.80;;;;;;;5.81;64.76;102638.95;1632202;86;21063;-58
2022/12/06 08:36:14;;;;;;;3.25;2.08;;;;;;;5.86;64.64;102637.79;1642964;86;21602;-58
2022/12/06 08:38:40;;;;;;;5.22;2.27;;;;;;;5.88;64.61;102634.83;1631545;86;21015;-58
2022/12/06 08:41:54;;;;;;;4.10;2.35;;;;;;;5.88;64.48;102633.13;1637621;86;21075;-58
2022/12/06 08:43:38;;;;;;;5.80;2.45;;;;;;;5.76;64.81;102631.06;1623087;86;21507;-58
2022/12/06 08:46:05;;;;;;;6.58;2.62;;;;;;;5.76;64.71;102630.18;1693141;83;21087;-58
2022/12/06 08:48:32;;;;;;;4.83;2.60;;;;;;;5.76;64.81;102619.84;1696170;83;21133;-58
2022/12/06 08:51:03;;;;;;;4.15;2.72;;;;;;;5.79;64.79;102619.92;1632016;86;21067;-58
2022/12/06 08:53:30;;;;;;;5.60;2.50;;;;;;;5.82;64.71;102620.42;1638472;86;21618;-60
2022/12/06 08:55:56;;;;;;;5.60;2.33;;;;;;;5.84;64.53;102622.25;1678138;83;21096;-58
2022/12/06 08:58:23;;;;;;;3.98;2.30;;;;;;;5.85;64.44;102620.15;1676168;84;21067;-58
2022/12/06 09:00:50;;;;;;;6.67;2.85;;;;;;;5.88;64.26;102618.92;1689533;83;21043;-57
2022/12/06 09:03:17;;;;;;;3.83;2.52;;;;;;;5.85;64.19;102614.98;1635825;86;21086;-58
2022/12/06 09:05:44;;;;;;;6.47;3.70;;;;;;;5.85;64.19;102609.81;1701334;83;21040;-58
2022/12/06 09:08:10;;;;;;;5.42;3.00;;;;;;;5.94;64.04;102603.98;1631352;86;21224;-58
2022/12/06 09:10:37;;;;;;;6.37;2.65;;;;;;;5.98;64.01;102601.53;1618311;86;21120;-58
2022/12/06 09:13:03;;;;;;;4.62;2.45;;;;;;;6.01;64.16;102595.17;1620813;86;21045;-58
2022/12/06 09:15:30;;;;;;;4.28;2.02;;;;;;;6.03;64.24;102597.38;1629732;86;21069;-58
2022/12/06 09:17:57;;;;;;;5.22;2.30;;;;;;;6.05;64.35;102595.70;1628829;86;21066;-57
2022/12/06 09:20:23;;;;;;;3.62;2.30;;;;;;;6.09;64.28;102591.06;1626817;85;21557;-58
2022/12/06 09:22:50;;;;;;;4.40;1.90;;;;;;;6.08;64.16;102585.42;1631249;86;21066;-58
2022/12/06 09:25:17;;;;;;;3.58;2.37;;;;;;;6.12;64.14;102585.95;1637410;86;21126;-58
2022/12/06 09:27:43;;;;;;;3.98;2.27;;;;;;;6.15;64.00;102580.88;1620585;86;21114;-57
2022/12/06 09:30:12;;;;;;;4.70;2.70;;;;;;;6.17;63.90;102577.03;1624296;86;21111;-58
2022/12/06 09:32:38;;;;;;;4.30;2.30;;;;;;;6.18;63.76;102570.60;1688508;83;21001;-58
2022/12/06 09:35:06;;;;;;;6.12;2.40;;;;;;;6.19;63.93;102571.08;1687969;83;21046;-57
2022/12/06 09:37:34;;;;;;;4.35;1.80;;;;;;;6.27;63.68;102574.72;1743908;80;21457;-59
2022/12/06 09:40:38;;;;;;;9.38;2.10;;;;;;;6.24;63.68;102568.20;1759364;80;21048;-58
2022/12/06 09:44:12;;;;;;;4.20;2.15;;;;;;;6.22;63.60;102560.80;1564971;90;21194;-58
2022/12/06 09:49:05;;;;;;;4.60;1.90;;;;;;;6.22;63.59;102545.28;1795592;78;27142;-59
2022/12/06 09:52:04;;;;;;;4.17;2.12;;;;;;;6.18;63.47;102538.73;1764162;80;21029;-60
2022/12/06 09:54:42;;;;;;;5.70;2.30;;;;;;;6.17;63.62;102530.52;1756635;80;21045;-58
2022/12/06 09:57:32;;;;;;;5.08;2.75;;;;;;;6.13;63.59;102529.57;1754197;81;21030;-58
2022/12/06 10:00:08;;;;;;;3.50;2.10;;;;;;;6.09;63.70;102529.45;1760985;80;21097;-58
2022/12/06 10:03:09;;;;;;;5.25;2.15;;;;;;;6.05;63.76;102523.75;1762050;80;21046;-59
2022/12/06 10:05:59;;;;;;;;;;;;;;;6.02;63.99;102519.38;1764489;80;21056;-59
2022/12/06 10:08:52;;;;;;;2.62;1.62;;;;;;;6.01;64.14;102517.65;1725889;82;20153;-58
2022/12/06 10:11:54;;;;;;;3.60;2.10;;;;;;;6.09;63.98;102521.29;1635152;86;21553;-58
2022/12/06 10:14:47;;;;;;;4.67;2.47;;;;;;;6.16;63.83;102523.16;1599697;86;21605;-58
2022/12/06 10:17:49;;;;;;;4.28;2.60;;;;;;;6.19;63.86;102514.20;1609008;88;21054;-58
2022/12/06 10:20:44;;;;;;;3.10;2.30;;;;;;;6.18;63.99;102511.59;1630852;86;21540;-57
2022/12/06 10:23:25;;;;;;;4.10;2.27;;;;;;;6.17;63.94;102505.55;1676508;84;21101;-57
2022/12/06 10:26:15;;;;;;;4.10;1.93;;;;;;;6.19;64.08;102504.28;1678929;84;21082;-57
2022/12/06 10:28:52;;;;;;;3.62;2.15;;;;;;;6.23;64.09;102497.94;1623025;86;21110;-58
2022/12/06 10:31:41;;;;;;;4.10;2.30;;;;;;;6.24;64.29;102491.94;1614224;88;21063;-56
2022/12/06 10:34:31;;;;;;;4.80;2.05;;;;;;;6.25;64.32;102492.38;1619048;87;21588;-58
2022/12/06 10:37:09;;;;;;;4.95;2.37;;;;;;;6.27;64.51;102488.53;1572822;89;21056;-59
2022/12/06 10:39:47;;;;;;;10.50;3.35;;;;;;;6.27;64.54;102481.66;1579083;89;21166;-57
2022/12/06 10:42:36;;;;;;;3.20;2.00;;;;;;;6.25;64.64;102478.16;1464690;95;21178;-58
2022/12/06 10:48:20;;;;;;;3.58;2.33;;;;;;;6.23;64.40;102474.67;1489908;95;21182;-57
2022/12/06 10:50:52;;;;;;;4.28;2.30;;;;;;;6.23;64.25;102468.20;1449777;98;21099;-57
2022/12/06 10:53:18;;;;;;;4.92;2.67;;;;;;;6.25;64.19;102470.41;1437815;98;21091;-57
2022/12/06 10:55:53;;;;;;;8.13;3.35;;;;;;;6.27;64.12;102471.73;1438669;98;21122;-57
2022/12/06 10:58:42;;;;;;;3.37;2.12;;;;;;;6.26;63.99;102477.34;1434756;98;21186;-58
2022/12/06 11:01:25;;;;;;;3.83;2.40;;;;;;;6.28;63.94;102481.25;1445655;98;21101;-58
2022/12/06 11:04:03;;;;;;;4.08;2.50;;;;;;;6.30;64.02;102481.74;1434478;98;21121;-58
2022/12/06 11:06:53;;;;;;;7.53;2.30;;;;;;;6.30;63.97;102482.16;1434794;98;21157;-58
2022/12/06 11:09:37;;;;;;;5.30;2.42;;;;;;;6.27;64.06;102467.44;1430397;97;21131;-59
2022/12/06 11:12:15;;;;;;;8.30;2.40;;;;;;;6.29;64.04;102468.76;1435499;98;21704;-58
2022/12/06 11:14:45;;;;;;;4.90;2.58;;;;;;;6.26;64.16;102474.75;1432402;97;21605;-56
2022/12/06 11:17:19;;;;;;;3.60;2.40;;;;;;;6.28;64.06;102466.62;1440334;97;21127;-58
2022/12/06 11:19:52;;;;;;;3.20;2.25;;;;;;;6.34;63.83;102457.70;1478883;95;21092;-59
2022/12/06 11:22:48;;;;;;;4.30;2.08;;;;;;;6.35;63.92;102449.50;1478584;96;21231;-57
2022/12/06 11:25:49;;;;;;;6.50;2.60;;;;;;;6.36;63.88;102440.92;1475265;96;21224;-58
2022/12/06 11:28:27;;;;;;;6.12;2.30;;;;;;;6.37;63.80;102434.48;1534616;92;21176;-56
2022/12/06 11:30:54;;;;;;;6.37;2.00;;;;;;;6.37;63.88;102434.48;1539801;92;21816;-58
2022/12/06 11:33:28;;;;;;;2.80;2.00;;;;;;;6.39;63.79;102438.39;1530189;92;21171;-57
2022/12/06 11:35:55;;;;;;;3.30;2.22;;;;;;;6.37;63.63;102443.95;1472429;96;21838;-57
2022/12/06 11:38:21;;;;;;;3.33;2.12;;;;;;;6.37;63.63;102443.53;1482421;95;21142;-57
2022/12/06 11:40:49;;;;;;;2.65;2.15;;;;;;;6.39;63.45;102448.31;1472745;95;21612;-58
2022/12/06 11:43:27;;;;;;;4.42;1.98;;;;;;;6.40;63.33;102443.62;1480226;96;21224;-57
2022/12/06 11:45:53;;;;;;;5.30;2.35;;;;;;;6.39;63.39;102439.27;1458705;96;21141;-63
2022/12/06 11:48:23;;;;;;;5.65;2.45;;;;;;;6.39;63.33;102439.27;1457732;96;21744;-56
2022/12/06 11:50:51;;;;;;;3.90;2.30;;;;;;;6.37;63.36;102442.66;1444003;96;21111;-58
2022/12/06 11:53:31;;;;;;;2.87;2.27;;;;;;;6.35;63.32;102433.58;1462240;96;21629;-57
2022/12/06 11:56:02;;;;;;;4.08;2.30;;;;;;;6.35;63.44;102431.00;1480520;95;21099;-58
2022/12/06 11:58:44;;;;;;;;;;;;;;;6.36;63.42;102430.17;1433701;99;21134;-56
2022/12/06 12:01:13;;;;;;;6.33;2.35;;;;;;;6.36;63.31;102426.30;1427091;99;20135;-64
2022/12/06 12:03:42;;;;;;;3.40;1.92;;;;;;;6.34;63.35;102420.63;1429509;99;21098;-58
2022/12/06 12:06:25;;;;;;;3.52;1.80;;;;;;;6.33;63.27;102426.20;1427272;99;21199;-57
2022/12/06 12:09:01;;;;;;;4.10;1.98;;;;;;;6.32;63.32;102415.44;1422738;99;21219;-56
2022/12/06 12:11:30;;;;;;;5.83;2.15;;;;;;;6.32;63.27;102418.02;1453973;96;21117;-57
2022/12/06 12:14:00;;;;;;;5.37;1.92;;;;;;;6.34;63.28;102425.80;1477340;96;21061;-58
2022/12/06 12:16:36;;;;;;;4.17;2.10;;;;;;;6.35;63.33;102432.29;1425354;99;21183;-57
2022/12/06 12:19:22;;;;;;;3.60;1.95;;;;;;;6.38;63.19;102425.91;1422459;99;21138;-56
2022/12/06 12:21:49;;;;;;;3.95;2.12;;;;;;;6.37;63.22;102412.92;1425037;99;21651;-58
2022/12/06 12:24:42;;;;;;;4.92;2.58;;;;;;;6.34;63.12;102420.22;1427943;99;21121;-56